Main page
METAR-TAF:

METAR-TAF

Airports :

Pointe Noire Airport

Pointe-Noire, Congo

latitude: 04-49S, longitude: 011-54E, elevation: 17 m

Current weather observation

The report was made 45 minutes ago, at 19:00 UTC
Wind 8 kt from the South/Southwest
Temperature 25°C
Humidity 89%
Pressure 1012 hPa
Visibility: 8000 m
Few clouds at a height of 1000 ft
Broken clouds at a height of 2300 ft

METAR: FCPP 221900Z 20008KT 8000 FEW010 BKN023 25/23 Q1012 NOSIG

Time: 20:45 (19:45 UTC)

Forecast

The report was made 2 hours and 45 minutes ago, at 17:00 UTC
Forecast valid from 22 at 18 UTC to 23 at 18 UTC
Wind 6 kt from the South/Southwest
Visibility 10 km or more
Scattered clouds at a height of 1400 ft
Scattered clouds at a height of 2300 ft
Probability 40%
from 23 at 15 UTC to 23 at 18 UTC
Scattered clouds at a height of 1500 ft
Scattered clouds at a height of 2300 ft
Few clouds at a height of 3000 ft, Cumulonimbus.

TAF: FCPP 221700Z 2218/2318 20006KT 9999 SCT014 SCT023 PROB40 2315/2318 SCT015 SCT023 FEW030CB

Weather observations and forecasts of more than 4000 airports (METAR and TAF reports).

The available stations are represented by yellow and red dots on the map.

Hover mouse over dot to see the name of the station.

Then click to see weather observations and forecasts.

To change the map : click on the green buttons with a black cross to zoom in, on the green button with a dash to zoom out, or on the green arrows for adjacent maps.


METAR-TAF: